Arcata, CA (95518)

9:29 PM PST on February 12, 2016 (GMT -0800)
Woodland Heights | | Change Station
CLOSE
Current Station
Personal Weather Station
Location: Arcata, CA
Elevation: 194 ft
Nearby Weather Stations

Elev 194 ft 40.89 °N, 124.07 °W | Updated 5 minutes ago

Fog
Fog
51.8 °F
Feels Like 51.8 °F
N
0.0
Wind Variable Wind from ESE
Gusts 0.0 mph

Today
High -- | Low -- °F
--% Chance of Precip.
Yesterday
High -- | Low -- °F
Precip. -- in
Pressure 30.33 in
Visibility 10.0 miles
Clouds Scattered Clouds 400 ft
Dew Point 51 °F
Humidity 97%
Rainfall 0.20 in
Snow Depth Not available.
7:14 AM 5:46 PM
Waxing Crescent, 27% visible
SPECI KACV 130522Z AUTO 04004KT 10SM SCT004 11/10 A3033 RMK AO2 T01060100
Pressure 30.33 in
Visibility 10.0 miles
Clouds Scattered Clouds 400 ft
Dew Point 51 °F
Humidity 97%
Rainfall 0.20 in
Snow Depth Not available.
7:14 AM 5:46 PM
Waxing Crescent, 27% visible
SPECI KACV 130522Z AUTO 04004KT 10SM SCT004 11/10 A3033 RMK AO2 T01060100

10-Day Weather Forecast

Almanac

Astronomy

Feb. 12, 2016 Rise Set
Actual Time
Civil Twilight
Nautical Twilight
Astronomical Twilight
Moon
Length of Visible Light
Length of Day
Tomorrow will be .
, % of the Moon is Illuminated

Today's Extremes

State Highs State Lows

Community

WunderPhotos

Upload Photos

1,892,507 photos uploaded!

WunderBlog® & News

Nearby

Air Quality

  Air Quality AQ Index Pollutant
Not available.

Snow Depth

Station Depth Elevation

Earthquake Activity

City Distance Mag. Time & Date
Minimum magnitude displayed is 2.5.

Coastal Water Temperatures

Place Temperature

Stations

Nearby Weather Stations

Station Location Temp. Windchill Dew Point Humidity Wind Precip. Elev Updated Type
                   

Watches & Warnings

There are currently no watches in effect.